Coconut Grove, Florida
Current Conditions -  °F | °C
As of 4:53 AM on Monday 26 Jan 2015 (Local Time) from KMIA Reporting Station
Few Clouds Few Clouds  
Wind Chill: 53°   Ceiling: Unl
Heat Index: 53°   Visibility: 10mi
Dew Point: 49°   Wind: 3mph
Humidity: 86%   Direction: 200°SSW
Pressure: 29.96"   Gusts: NA
Location:  25.7533°N, 80.2707°W
Report Text: KMIA 260953Z 20003KT 10SM FEW045 12/09 A2996 RMK AO2 SLP146 T01170094
Loading
Personal Weather Stations






























Interactive Weather Map New forecast layout! Learn more

10-Day Weather Forecast

Advertisements
Track Severe Weather on mobile